createdAt,value
2023-02-09T00:02:41.205Z,9.97
2023-02-09T00:06:43.032Z,12.27
2023-02-09T00:10:44.958Z,11.60
2023-02-09T00:14:47.141Z,11.23
2023-02-09T00:18:49.022Z,10.17
2023-02-09T00:22:50.787Z,11.13
2023-02-09T00:26:52.618Z,11.07
2023-02-09T00:30:54.586Z,12.57
2023-02-09T00:34:56.431Z,11.43
2023-02-09T00:38:59.169Z,12.27
2023-02-09T00:43:00.982Z,13.47
2023-02-09T00:47:02.948Z,9.27
2023-02-09T00:51:05.023Z,12.67
2023-02-09T00:55:07.251Z,10.93
2023-02-09T00:59:09.445Z,11.57
2023-02-09T01:03:11.337Z,9.80
2023-02-09T01:07:17.811Z,13.67
2023-02-09T01:11:19.819Z,13.53
2023-02-09T01:15:21.690Z,15.83
2023-02-09T01:19:23.504Z,12.13
2023-02-09T01:23:25.284Z,13.87
2023-02-09T01:27:27.019Z,14.47
2023-02-09T01:31:33.958Z,12.47
2023-02-09T01:35:35.915Z,16.97
2023-02-09T01:39:37.892Z,14.83
2023-02-09T01:43:56.845Z,13.13
2023-02-09T01:48:03.609Z,14.83
2023-02-09T01:52:09.954Z,15.83
2023-02-09T01:56:17.227Z,14.03
2023-02-09T02:00:20.981Z,14.90
2023-02-09T02:04:22.809Z,14.97
2023-02-09T02:08:56.379Z,15.17
2023-02-09T02:12:58.232Z,14.03
2023-02-09T02:17:46.152Z,12.07
2023-02-09T02:22:10.424Z,14.57
2023-02-09T02:26:36.877Z,12.63
2023-02-09T02:30:58.312Z,16.93
2023-02-09T02:35:36.716Z,14.17
2023-02-09T02:40:13.285Z,12.50
2023-02-09T02:44:15.091Z,17.77
2023-02-09T02:48:37.900Z,14.80
2023-02-09T02:52:39.721Z,13.07
2023-02-09T02:56:52.308Z,13.23
2023-02-09T03:00:55.758Z,14.67
2023-02-09T03:04:57.955Z,15.43
2023-02-09T03:08:59.895Z,14.60
2023-02-09T03:13:29.118Z,14.63
2023-02-09T03:17:55.220Z,15.33
2023-02-09T03:22:18.597Z,15.00
2023-02-09T03:26:28.242Z,12.70
2023-02-09T03:30:32.201Z,15.67
2023-02-09T03:34:33.950Z,16.43
2023-02-09T03:38:35.700Z,14.30
2023-02-09T03:42:37.503Z,17.07
2023-02-09T03:46:39.761Z,15.60
2023-02-09T03:50:41.631Z,15.67
2023-02-09T03:54:43.622Z,16.53
2023-02-09T03:58:45.413Z,14.47
2023-02-09T04:02:47.507Z,13.73
2023-02-09T04:06:49.581Z,18.07
2023-02-09T04:10:51.423Z,16.37
2023-02-09T04:14:53.390Z,15.97
2023-02-09T04:18:55.329Z,15.97
2023-02-09T04:22:57.180Z,14.40
2023-02-09T04:26:59.068Z,14.87
2023-02-09T04:31:04.325Z,16.97
2023-02-09T04:35:06.876Z,15.13
2023-02-09T04:39:08.753Z,16.33
2023-02-09T04:43:10.549Z,17.13
2023-02-09T04:47:12.442Z,15.43
2023-02-09T04:51:14.265Z,14.70
2023-02-09T04:55:16.226Z,15.27
2023-02-09T04:59:41.321Z,14.70
2023-02-09T05:03:43.292Z,16.33
2023-02-09T05:07:45.433Z,17.97
2023-02-09T05:11:47.372Z,15.17
2023-02-09T05:15:49.389Z,18.63
2023-02-09T05:19:51.169Z,18.40
2023-02-09T05:23:53.033Z,17.40
2023-02-09T05:27:54.945Z,17.27
2023-02-09T05:31:56.934Z,19.90
2023-02-09T05:35:58.942Z,25.77
2023-02-09T05:40:00.796Z,22.20
2023-02-09T05:44:03.889Z,20.57
2023-02-09T05:48:05.954Z,19.87
2023-02-09T05:52:17.374Z,22.10
2023-02-09T05:56:19.582Z,22.37
2023-02-09T06:00:31.691Z,19.47
2023-02-09T06:04:40.887Z,22.33
2023-02-09T06:08:43.526Z,21.73
2023-02-09T06:12:48.240Z,29.50
2023-02-09T06:17:00.761Z,31.67
2023-02-09T06:21:02.882Z,25.07
2023-02-09T06:25:05.295Z,21.97
2023-02-09T06:29:08.070Z,20.33
2023-02-09T06:33:12.518Z,22.97
2023-02-09T06:37:28.974Z,20.00
2023-02-09T06:41:31.014Z,22.20
2023-02-09T06:45:32.912Z,25.10
2023-02-09T06:49:34.863Z,23.30
2023-02-09T06:53:38.369Z,21.63
2023-02-09T06:57:43.076Z,30.43
2023-02-09T07:01:56.377Z,27.93
2023-02-09T07:06:25.697Z,25.43
2023-02-09T07:10:30.699Z,25.50
2023-02-09T07:14:32.599Z,24.23
2023-02-09T07:18:34.976Z,26.00
2023-02-09T07:22:37.243Z,27.63
2023-02-09T07:26:39.259Z,21.03
2023-02-09T07:30:44.781Z,22.50
2023-02-09T07:34:47.449Z,24.27
2023-02-09T07:38:57.216Z,23.00
2023-02-09T07:43:00.380Z,23.53
2023-02-09T07:47:09.525Z,23.30
2023-02-09T07:51:20.172Z,20.87
2023-02-09T07:55:27.323Z,24.13
2023-02-09T07:59:29.373Z,23.13
2023-02-09T08:03:37.476Z,22.07
2023-02-09T08:07:39.639Z,26.33
2023-02-09T08:11:48.366Z,19.40
2023-02-09T08:16:07.073Z,24.43
2023-02-09T08:20:15.981Z,21.37
2023-02-09T08:24:18.810Z,24.27
2023-02-09T08:28:34.891Z,26.07
2023-02-09T08:32:45.670Z,22.70
2023-02-09T08:36:56.649Z,23.33
2023-02-09T08:40:58.872Z,21.83
2023-02-09T08:45:03.457Z,20.77
2023-02-09T08:49:17.826Z,21.23
2023-02-09T08:53:32.288Z,23.60
2023-02-09T08:57:45.160Z,26.93
2023-02-09T09:01:59.923Z,24.87
2023-02-09T09:06:37.307Z,22.93
2023-02-09T09:10:45.518Z,23.60
2023-02-09T09:14:54.454Z,22.97
2023-02-09T09:18:56.507Z,21.37
2023-02-09T09:23:00.108Z,23.60
2023-02-09T09:27:02.069Z,22.00
2023-02-09T09:31:30.838Z,21.87
2023-02-09T09:35:32.896Z,21.67
2023-02-09T09:39:34.851Z,20.33
2023-02-09T09:43:38.518Z,22.20
2023-02-09T09:47:42.434Z,21.03
2023-02-09T09:51:46.484Z,21.40
2023-02-09T09:55:48.587Z,20.07
2023-02-09T09:59:50.659Z,18.97
2023-02-09T10:03:52.512Z,18.23
2023-02-09T10:08:10.971Z,18.80
2023-02-09T10:12:26.225Z,18.30
2023-02-09T10:16:34.374Z,20.13
2023-02-09T10:21:05.199Z,17.17
2023-02-09T10:25:50.165Z,20.23
2023-02-09T10:29:52.218Z,19.60
2023-02-09T10:34:17.892Z,17.23
2023-02-09T10:38:24.757Z,23.13
2023-02-09T10:42:46.594Z,16.93
2023-02-09T10:46:48.699Z,19.10
2023-02-09T10:50:53.264Z,16.67
2023-02-09T10:55:05.481Z,19.83
2023-02-09T10:59:29.312Z,20.97
2023-02-09T11:03:31.169Z,21.87
2023-02-09T11:12:01.339Z,17.93
2023-02-09T11:16:38.090Z,19.17
2023-02-09T11:21:03.446Z,15.43
2023-02-09T11:25:27.927Z,13.73
2023-02-09T11:30:14.631Z,16.30
2023-02-09T11:34:27.991Z,16.57
2023-02-09T11:38:49.334Z,19.47
2023-02-09T11:43:22.961Z,14.77
2023-02-09T11:47:42.487Z,14.50
2023-02-09T11:51:47.288Z,11.97
2023-02-09T11:55:53.964Z,14.07
2023-02-09T11:59:58.824Z,13.63
2023-02-09T12:04:40.278Z,11.97
2023-02-09T12:09:10.464Z,12.83
2023-02-09T12:14:15.020Z,12.33
2023-02-09T12:18:22.002Z,18.03
2023-02-09T12:22:43.017Z,14.03
2023-02-09T12:26:48.223Z,13.67
2023-02-09T12:30:52.717Z,12.40
2023-02-09T12:34:55.490Z,13.57
2023-02-09T12:39:04.690Z,15.73
2023-02-09T12:43:26.134Z,13.23
2023-02-09T12:47:46.279Z,12.53
2023-02-09T12:51:54.411Z,12.63
2023-02-09T12:56:03.785Z,14.17
2023-02-09T13:00:05.591Z,14.33
2023-02-09T13:04:10.113Z,13.83
2023-02-09T13:08:13.257Z,14.50
2023-02-09T13:12:21.727Z,14.57
2023-02-09T13:16:29.416Z,14.93
2023-02-09T13:20:34.125Z,16.70
2023-02-09T13:24:48.038Z,16.47
2023-02-09T13:28:56.958Z,17.27
2023-02-09T13:33:45.729Z,24.80
2023-02-09T13:37:56.632Z,15.97
2023-02-09T13:41:59.176Z,17.57
2023-02-09T13:46:06.306Z,16.63
2023-02-09T13:50:34.844Z,16.83
2023-02-09T13:54:36.772Z,19.77
2023-02-09T13:58:41.508Z,14.90
2023-02-09T14:03:02.051Z,14.03
2023-02-09T14:07:09.797Z,19.30
2023-02-09T14:11:33.180Z,20.13
2023-02-09T14:16:08.213Z,14.17
2023-02-09T14:20:25.577Z,17.07
2023-02-09T14:24:28.797Z,16.60
2023-02-09T14:28:30.766Z,17.57
2023-02-09T14:32:37.613Z,14.87
2023-02-09T14:36:39.577Z,18.83
2023-02-09T14:40:41.565Z,14.17
2023-02-09T14:45:25.427Z,17.57
2023-02-09T14:49:28.585Z,17.97
2023-02-09T14:53:58.183Z,17.57
2023-02-09T14:58:00.201Z,16.27
2023-02-09T15:02:22.260Z,20.60
2023-02-09T15:06:27.022Z,15.13
2023-02-09T15:10:34.298Z,18.23
2023-02-09T15:14:45.806Z,17.43
2023-02-09T15:18:53.765Z,21.93
2023-02-09T15:22:56.017Z,24.37
2023-02-09T15:26:57.880Z,19.03
2023-02-09T15:31:00.029Z,19.63
2023-02-09T15:35:01.937Z,18.07
2023-02-09T15:39:04.567Z,17.40
2023-02-09T15:43:37.010Z,16.77
2023-02-09T15:47:52.801Z,14.83
2023-02-09T15:51:57.366Z,15.87
2023-02-09T15:55:59.884Z,13.63
2023-02-09T16:00:01.843Z,13.97
2023-02-09T16:04:13.473Z,12.80
2023-02-09T16:08:27.804Z,12.90
2023-02-09T16:12:29.791Z,14.43
2023-02-09T16:16:32.394Z,17.20
2023-02-09T16:20:34.487Z,17.63
2023-02-09T16:24:43.933Z,14.27
2023-02-09T16:28:47.665Z,16.50
2023-02-09T16:32:49.705Z,17.57
2023-02-09T16:36:55.645Z,19.97
2023-02-09T16:41:01.065Z,21.37
2023-02-09T16:45:04.049Z,17.60
2023-02-09T16:49:05.837Z,20.00
2023-02-09T16:53:25.412Z,20.33
2023-02-09T16:57:28.063Z,21.67
2023-02-09T17:01:34.703Z,17.00
2023-02-09T17:05:37.451Z,20.50
2023-02-09T17:09:59.919Z,18.87
2023-02-09T17:14:01.995Z,19.83
2023-02-09T17:18:09.097Z,19.90
2023-02-09T17:22:13.298Z,20.03
2023-02-09T17:26:15.629Z,21.90
2023-02-09T17:30:17.883Z,23.17
2023-02-09T17:35:13.827Z,19.03
2023-02-09T17:39:18.791Z,21.70
2023-02-09T17:43:21.093Z,19.80
2023-02-09T17:47:31.461Z,19.27
2023-02-09T17:51:37.306Z,18.87
2023-02-09T17:55:39.453Z,19.97
2023-02-09T17:59:44.069Z,19.57
2023-02-09T18:03:49.257Z,20.53
2023-02-09T18:07:57.082Z,23.20
2023-02-09T18:12:02.283Z,20.50
2023-02-09T18:16:24.664Z,21.90
2023-02-09T18:20:36.243Z,20.30
2023-02-09T18:24:46.930Z,19.10
2023-02-09T18:28:50.771Z,17.50
2023-02-09T18:33:02.709Z,23.27
2023-02-09T18:37:16.256Z,18.73
2023-02-09T18:41:34.848Z,20.37
2023-02-09T18:45:36.956Z,21.70
2023-02-09T18:49:44.817Z,19.83
2023-02-09T18:53:47.585Z,26.73
2023-02-09T18:58:08.652Z,20.37
2023-02-09T19:02:24.796Z,21.93
2023-02-09T19:06:29.786Z,21.60
2023-02-09T19:10:33.279Z,25.13
2023-02-09T19:14:42.162Z,21.77
2023-02-09T19:18:48.036Z,23.00
2023-02-09T19:22:53.266Z,23.80
2023-02-09T19:26:56.197Z,18.43
2023-02-09T19:31:00.550Z,22.63
2023-02-09T19:35:04.337Z,21.13
2023-02-09T19:39:19.417Z,22.00
2023-02-09T19:43:26.701Z,22.80
2023-02-09T19:47:39.816Z,22.20
2023-02-09T19:51:41.924Z,20.23
2023-02-09T19:55:53.829Z,22.13
2023-02-09T20:00:02.079Z,19.30
2023-02-09T20:04:11.615Z,27.87
2023-02-09T20:08:14.974Z,22.87
2023-02-09T20:12:21.214Z,20.83
2023-02-09T20:16:35.063Z,20.03
2023-02-09T20:20:52.128Z,22.03
2023-02-09T20:25:02.595Z,25.27
2023-02-09T20:29:07.031Z,19.47
2023-02-09T20:33:10.254Z,20.63
2023-02-09T20:37:14.685Z,21.77
2023-02-09T20:41:17.627Z,20.90
2023-02-09T20:45:37.961Z,23.23
2023-02-09T20:49:40.653Z,24.77
2023-02-09T20:53:42.542Z,20.70
2023-02-09T20:57:44.440Z,21.23
2023-02-09T21:01:46.325Z,20.03
2023-02-09T21:05:48.160Z,20.87
2023-02-09T21:09:50.130Z,22.47
2023-02-09T21:13:51.964Z,20.90
2023-02-09T21:17:53.819Z,20.67
2023-02-09T21:21:55.783Z,24.10
2023-02-09T21:26:09.385Z,23.27
2023-02-09T21:30:12.211Z,18.97
2023-02-09T21:34:20.061Z,24.50
2023-02-09T21:42:39.061Z,18.57
2023-02-09T21:46:41.030Z,19.43
2023-02-09T21:50:42.923Z,21.90
2023-02-09T21:54:44.900Z,22.63
2023-02-09T21:58:46.907Z,24.23
2023-02-09T22:02:54.166Z,19.20
2023-02-09T22:06:56.076Z,21.27
2023-02-09T22:11:06.054Z,18.40
2023-02-09T22:15:08.605Z,20.57
2023-02-09T22:19:10.487Z,21.93
2023-02-09T22:23:12.722Z,19.27
2023-02-09T22:27:14.726Z,21.37
2023-02-09T22:31:18.622Z,23.23
2023-02-09T22:35:20.565Z,19.43
2023-02-09T22:39:22.418Z,33.90
2023-02-09T22:43:24.238Z,19.40
2023-02-09T22:47:26.157Z,20.30
2023-02-09T22:51:29.932Z,16.47
2023-02-09T22:55:31.789Z,18.40
2023-02-09T22:59:36.273Z,16.67
2023-02-09T23:03:39.192Z,16.20
2023-02-09T23:07:41.756Z,15.40
2023-02-09T23:11:44.407Z,14.63
2023-02-09T23:15:46.659Z,14.67
2023-02-09T23:19:48.648Z,14.93
2023-02-09T23:23:50.516Z,14.13
2023-02-09T23:27:52.400Z,15.77
2023-02-09T23:31:54.350Z,13.87
2023-02-09T23:35:56.172Z,14.47
2023-02-09T23:39:58.003Z,12.17
2023-02-09T23:43:59.979Z,14.03
2023-02-09T23:48:01.871Z,15.23
2023-02-09T23:52:03.745Z,16.63
2023-02-09T23:56:05.774Z,12.20
